Time;durP1;ratioP1;P1;durP2;ratioP2;P2;SDS_P1;SDS_P2;PMS_P1;PMS_P2;Temp;Humidity;BMP_temperature;BMP_pressure;BME280_temperature;BME280_humidity;BME280_pressure;Samples;Min_cycle;Max_cycle;Signal;HPM_P1;HPM_P2
2022/06/10 00:00:42;;;;;;;9.05;2.80;;;13.30;99.90;;;;;;5056132;28;20049;-55
2022/06/10 00:03:10;;;;;;;9.05;2.83;;;13.30;99.90;;;;;;5056136;28;20047;-55
2022/06/10 00:05:37;;;;;;;9.80;2.67;;;13.30;99.90;;;;;;5059245;28;20044;-56
2022/06/10 00:08:09;;;;;;;12.48;2.60;;;13.30;99.90;;;;;;5058173;28;20052;-56
2022/06/10 00:10:35;;;;;;;10.88;3.05;;;13.20;99.90;;;;;;5058657;28;20130;-56
2022/06/10 00:13:01;;;;;;;11.30;2.60;;;13.20;99.90;;;;;;5058256;28;20056;-54
2022/06/10 00:15:28;;;;;;;9.80;2.60;;;13.20;99.90;;;;;;5051132;28;20039;-56
2022/06/10 00:17:54;;;;;;;10.05;2.92;;;13.10;99.90;;;;;;5059676;28;20410;-56
2022/06/10 00:20:23;;;;;;;12.05;2.90;;;13.10;99.90;;;;;;5056440;28;20050;-57
2022/06/10 00:22:49;;;;;;;9.23;2.70;;;13.10;99.90;;;;;;5060721;28;20048;-56
2022/06/10 00:25:17;;;;;;;5.97;2.75;;;13.00;99.90;;;;;;5053661;28;20040;-54
2022/06/10 00:27:44;;;;;;;9.38;3.05;;;13.00;99.90;;;;;;5058245;28;20040;-54
2022/06/10 00:30:11;;;;;;;6.85;3.17;;;13.00;99.90;;;;;;5057396;28;20045;-55
2022/06/10 00:32:37;;;;;;;11.40;3.15;;;13.00;99.90;;;;;;5061706;28;20056;-55
2022/06/10 00:35:03;;;;;;;15.73;3.38;;;12.90;99.90;;;;;;5059737;28;20048;-55
2022/06/10 00:37:35;;;;;;;11.70;3.42;;;13.00;99.90;;;;;;5058405;28;20055;-55
2022/06/10 00:40:03;;;;;;;10.77;3.47;;;13.00;99.90;;;;;;5061355;28;20044;-56
2022/06/10 00:42:28;;;;;;;13.13;3.28;;;12.90;99.90;;;;;;5058075;28;20102;-55
2022/06/10 00:44:54;;;;;;;10.13;3.20;;;12.90;99.90;;;;;;5055674;28;20056;-56
2022/06/10 00:47:32;;;;;;;8.88;3.10;;;12.90;99.90;;;;;;5057419;28;20041;-56
2022/06/10 00:50:16;;;;;;;15.00;3.78;;;12.80;99.90;;;;;;5060013;28;20358;-56
2022/06/10 00:52:52;;;;;;;11.25;3.47;;;12.80;99.90;;;;;;5053965;28;20044;-57
2022/06/10 00:55:28;;;;;;;11.57;3.08;;;12.80;99.90;;;;;;5060693;28;20497;-58
2022/06/10 00:58:02;;;;;;;9.98;2.80;;;12.80;99.90;;;;;;5057420;28;20060;-57
2022/06/10 01:00:28;;;;;;;17.05;3.50;;;12.80;99.90;;;;;;5055821;28;20106;-55
2022/06/10 01:02:55;;;;;;;14.30;3.15;;;12.70;99.90;;;;;;5059858;28;20048;-58
2022/06/10 01:05:25;;;;;;;9.75;3.45;;;12.70;99.90;;;;;;5063184;28;20052;-58
2022/06/10 01:07:58;;;;;;;10.40;3.45;;;12.70;99.90;;;;;;5058731;28;20036;-57
2022/06/10 01:10:24;;;;;;;8.60;3.28;;;12.70;99.90;;;;;;5057254;28;20037;-54
2022/06/10 01:13:12;;;;;;;8.38;2.88;;;12.60;99.90;;;;;;5056049;28;21058;-58
2022/06/10 01:16:15;;;;;;;12.40;3.28;;;12.70;99.90;;;;;;5057413;28;20708;-58
2022/06/10 01:19:12;;;;;;;10.95;3.85;;;12.60;99.90;;;;;;5057477;28;20041;-58
2022/06/10 01:22:33;;;;;;;13.23;3.33;;;12.60;99.90;;;;;;5053765;28;20044;-58
2022/06/10 01:25:37;;;;;;;8.40;3.00;;;12.60;99.90;;;;;;5056671;28;20406;-58
2022/06/10 01:28:13;;;;;;;;;;;12.50;99.90;;;;;;5060008;28;20101;-58
2022/06/10 01:30:57;;;;;;;12.52;3.55;;;12.50;99.90;;;;;;5061526;28;19981;-57
2022/06/10 01:33:34;;;;;;;7.50;3.20;;;12.40;99.90;;;;;;5057828;28;20056;-56
2022/06/10 01:36:40;;;;;;;9.65;3.05;;;12.40;99.90;;;;;;5061133;28;20032;-58
2022/06/10 01:39:10;;;;;;;13.05;3.67;;;12.40;99.90;;;;;;5051016;28;20036;-58
2022/06/10 01:41:56;;;;;;;11.98;3.65;;;12.40;99.90;;;;;;5060112;28;20048;-57
2022/06/10 01:44:35;;;;;;;14.20;3.95;;;12.40;99.90;;;;;;5059762;28;20502;-58
2022/06/10 01:47:15;;;;;;;12.52;3.63;;;12.40;99.90;;;;;;5062648;28;20105;-58
2022/06/10 01:50:08;;;;;;;10.32;3.38;;;12.30;99.90;;;;;;5065175;28;20047;-54
2022/06/10 01:52:39;;;;;;;14.23;3.83;;;12.40;99.90;;;;;;5059597;28;20628;-58
2022/06/10 01:55:43;;;;;;;14.07;3.88;;;12.30;99.90;;;;;;5061895;28;20106;-57
2022/06/10 01:58:20;;;;;;;9.38;3.85;;;12.30;99.90;;;;;;5058814;28;20040;-57
2022/06/10 02:00:50;;;;;;;5.55;3.28;;;12.30;99.90;;;;;;5058564;28;20087;-57
2022/06/10 02:03:32;;;;;;;11.48;3.97;;;12.20;99.90;;;;;;5060647;28;20111;-58
2022/06/10 02:06:00;;;;;;;;;;;12.20;99.90;;;;;;5060331;28;20055;-57
2022/06/10 02:08:31;;;;;;;13.00;3.97;;;12.20;99.90;;;;;;5062660;28;19939;-58
2022/06/10 02:11:05;;;;;;;12.57;3.75;;;12.20;99.90;;;;;;5060722;28;20105;-58
2022/06/10 02:13:40;;;;;;;10.02;3.80;;;12.10;99.90;;;;;;5061922;28;20047;-55
2022/06/10 02:16:11;;;;;;;13.00;4.18;;;12.10;99.90;;;;;;5064780;28;20052;-58
2022/06/10 02:18:45;;;;;;;11.52;3.40;;;12.10;99.90;;;;;;5062243;28;20063;-57
2022/06/10 02:21:38;;;;;;;11.38;4.10;;;12.10;99.90;;;;;;5064091;28;20087;-57
2022/06/10 02:24:11;;;;;;;13.27;4.18;;;12.00;99.90;;;;;;5061996;28;20048;-57
2022/06/10 02:26:38;;;;;;;11.73;4.25;;;12.00;99.90;;;;;;5058173;28;21228;-58
2022/06/10 02:29:10;;;;;;;13.32;4.00;;;12.00;99.90;;;;;;5062672;28;20052;-56
2022/06/10 02:31:44;;;;;;;8.07;4.07;;;12.00;99.90;;;;;;5058358;28;20106;-58
2022/06/10 02:34:10;;;;;;;10.13;3.85;;;12.00;99.90;;;;;;5061413;28;20056;-55
2022/06/10 02:36:42;;;;;;;10.38;4.28;;;12.00;99.90;;;;;;5059419;28;20049;-57
2022/06/10 02:39:25;;;;;;;10.45;4.32;;;11.90;99.90;;;;;;5060601;28;20088;-56
2022/06/10 02:42:00;;;;;;;;;;;11.90;99.90;;;;;;5061584;28;20079;-58
2022/06/10 02:44:37;;;;;;;14.73;4.38;;;11.90;99.90;;;;;;5058324;28;19924;-57
2022/06/10 02:47:32;;;;;;;10.68;4.15;;;11.90;99.90;;;;;;5063718;28;20072;-58
2022/06/10 02:49:58;;;;;;;14.50;4.15;;;11.90;99.90;;;;;;5062270;28;20041;-58
2022/06/10 02:52:29;;;;;;;17.85;4.70;;;11.90;99.90;;;;;;5065354;28;20123;-58
2022/06/10 02:54:55;;;;;;;10.93;4.17;;;11.90;99.90;;;;;;5059744;28;20044;-58
2022/06/10 03:01:11;;;;;;;13.23;4.63;;;11.90;99.90;;;;;;5058089;28;20338;-56
2022/06/10 03:03:37;;;;;;;10.73;4.13;;;11.80;99.90;;;;;;5061875;28;20094;-58
2022/06/10 03:06:09;;;;;;;11.88;4.45;;;11.90;99.90;;;;;;5053875;28;20055;-56
2022/06/10 03:08:41;;;;;;;15.68;5.03;;;11.80;99.90;;;;;;5057512;28;20083;-56
2022/06/10 03:11:24;;;;;;;17.17;4.60;;;11.80;99.90;;;;;;5051557;28;20110;-58
2022/06/10 03:14:10;;;;;;;15.13;4.28;;;11.80;99.90;;;;;;5053202;28;20051;-56
2022/06/10 03:16:58;;;;;;;11.75;3.67;;;11.80;99.90;;;;;;5061179;28;20056;-57
2022/06/10 03:19:47;;;;;;;9.85;4.10;;;11.80;99.90;;;;;;5065036;28;20093;-58
2022/06/10 03:22:47;;;;;;;11.27;3.70;;;11.80;99.90;;;;;;5048164;28;20475;-57
2022/06/10 03:25:28;;;;;;;11.80;4.00;;;11.80;99.90;;;;;;5057453;28;20491;-57
2022/06/10 03:28:23;;;;;;;11.15;4.22;;;11.70;99.90;;;;;;5064171;28;20119;-57
2022/06/10 03:31:03;;;;;;;13.55;4.10;;;11.70;99.90;;;;;;5049064;28;20479;-58
2022/06/10 03:33:43;;;;;;;10.15;4.15;;;11.70;99.90;;;;;;5049686;28;20110;-58
2022/06/10 03:36:16;;;;;;;15.52;4.40;;;11.70;99.90;;;;;;5061236;28;20052;-58
2022/06/10 03:38:45;;;;;;;13.80;4.43;;;11.70;99.90;;;;;;5050230;28;20037;-58
2022/06/10 03:41:24;;;;;;;16.52;4.80;;;11.70;99.90;;;;;;5057566;28;22363;-56
2022/06/10 03:43:52;;;;;;;14.30;4.20;;;11.60;99.90;;;;;;5056298;28;20057;-56
2022/06/10 03:46:21;;;;;;;11.57;4.88;;;11.70;99.90;;;;;;5058249;28;20647;-57
2022/06/10 03:48:48;;;;;;;10.48;4.05;;;11.70;99.90;;;;;;5062679;28;20043;-56
2022/06/10 03:51:16;;;;;;;11.95;4.30;;;11.70;99.90;;;;;;5057365;28;20123;-56
2022/06/10 03:53:43;;;;;;;13.10;4.03;;;11.70;99.90;;;;;;5058517;28;20056;-55
2022/06/10 03:56:10;;;;;;;10.80;4.05;;;11.60;99.90;;;;;;5060625;28;20044;-56
2022/06/10 03:58:37;;;;;;;13.35;4.10;;;11.70;99.90;;;;;;5060564;28;20064;-57
2022/06/10 04:01:03;;;;;;;18.27;3.92;;;11.70;99.90;;;;;;5054720;28;20045;-58
2022/06/10 04:03:28;;;;;;;11.77;3.90;;;11.70;99.90;;;;;;5053093;28;20090;-54
2022/06/10 04:05:55;;;;;;;11.18;3.90;;;11.70;99.90;;;;;;5062380;28;20675;-56
2022/06/10 04:08:21;;;;;;;14.05;4.25;;;11.70;99.90;;;;;;5061079;28;20533;-56
2022/06/10 04:10:47;;;;;;;14.40;4.57;;;11.80;99.90;;;;;;5058960;28;20078;-55
2022/06/10 04:13:17;;;;;;;10.35;3.85;;;11.80;99.90;;;;;;5054501;28;20048;-54
2022/06/10 04:15:44;;;;;;;13.00;3.90;;;11.80;99.90;;;;;;5056061;28;20170;-55
2022/06/10 04:18:10;;;;;;;11.98;4.13;;;11.80;99.90;;;;;;5058113;28;20159;-56
2022/06/10 04:20:38;;;;;;;14.18;3.90;;;11.90;99.90;;;;;;5060202;28;20070;-53
2022/06/10 04:23:05;;;;;;;12.57;3.95;;;11.90;99.90;;;;;;5061903;28;20057;-53
2022/06/10 04:25:33;;;;;;;11.25;3.75;;;12.00;99.90;;;;;;5055640;28;20040;-55
2022/06/10 04:27:59;;;;;;;12.45;4.13;;;12.00;99.90;;;;;;5057913;28;20115;-56
2022/06/10 04:30:41;;;;;;;10.55;4.00;;;12.10;99.90;;;;;;5060245;28;20033;-53
2022/06/10 04:33:07;;;;;;;10.55;4.32;;;12.10;99.90;;;;;;5057960;28;20048;-56
2022/06/10 04:35:36;;;;;;;14.65;3.95;;;12.20;99.90;;;;;;5060757;28;20439;-56
2022/06/10 04:38:03;;;;;;;15.60;4.28;;;12.20;99.90;;;;;;5060147;28;20044;-56
2022/06/10 04:40:30;;;;;;;11.32;3.90;;;12.30;99.90;;;;;;5059122;28;20049;-56
2022/06/10 04:42:58;;;;;;;18.45;4.38;;;12.30;99.90;;;;;;5058678;28;20179;-56
2022/06/10 04:45:31;;;;;;;12.95;3.78;;;12.40;99.90;;;;;;5061139;28;20140;-58
2022/06/10 04:47:58;;;;;;;16.63;4.38;;;12.50;99.90;;;;;;5059488;28;20040;-56
2022/06/10 04:50:25;;;;;;;13.65;3.90;;;12.60;99.90;;;;;;5057212;28;20040;-55
2022/06/10 04:52:52;;;;;;;12.98;3.83;;;12.60;99.90;;;;;;5061069;28;20052;-55
2022/06/10 04:55:19;;;;;;;10.35;3.60;;;12.70;99.90;;;;;;5058543;28;20840;-55
2022/06/10 04:57:46;;;;;;;9.77;3.78;;;12.80;99.90;;;;;;5062600;28;20076;-55
2022/06/10 05:00:17;;;;;;;15.45;4.00;;;12.90;99.90;;;;;;5058672;28;20123;-58
2022/06/10 05:02:43;;;;;;;11.02;3.78;;;13.00;99.90;;;;;;5055493;28;20048;-58
2022/06/10 05:05:09;;;;;;;16.42;3.80;;;13.10;99.90;;;;;;5058097;28;20036;-58
2022/06/10 05:07:35;;;;;;;13.23;3.90;;;13.20;99.90;;;;;;5056982;28;20079;-57
2022/06/10 05:10:01;;;;;;;17.23;4.50;;;13.20;99.90;;;;;;5055590;28;20052;-55
2022/06/10 05:12:27;;;;;;;12.55;3.63;;;13.30;99.90;;;;;;5059776;28;20049;-55
2022/06/10 05:14:53;;;;;;;19.52;4.50;;;13.40;99.90;;;;;;5060553;28;20071;-56
2022/06/10 05:17:19;;;;;;;17.65;4.50;;;13.40;99.90;;;;;;5054806;28;20092;-56
2022/06/10 05:19:47;;;;;;;15.65;3.65;;;13.50;99.90;;;;;;5053431;28;20057;-57
2022/06/10 05:22:14;;;;;;;16.25;4.25;;;13.60;99.90;;;;;;5055612;28;20037;-56
2022/06/10 05:24:39;;;;;;;15.15;3.83;;;13.60;99.90;;;;;;5056459;28;20040;-54
2022/06/10 05:27:06;;;;;;;13.65;3.55;;;13.70;99.90;;;;;;5052765;28;20048;-54
2022/06/10 05:29:32;;;;;;;17.70;3.90;;;13.70;99.90;;;;;;5053194;28;20087;-55
2022/06/10 05:31:57;;;;;;;11.40;3.47;;;13.80;99.90;;;;;;5053748;28;20473;-54
2022/06/10 05:37:07;;;;;;;15.77;3.53;;;13.90;99.90;;;;;;5049319;28;20044;-56
2022/06/10 05:39:33;;;;;;;14.57;3.83;;;13.90;99.90;;;;;;5049646;28;20048;-56
2022/06/10 05:42:05;;;;;;;19.80;3.92;;;14.00;99.90;;;;;;5048799;28;20045;-55
2022/06/10 05:44:45;;;;;;;9.55;3.60;;;14.10;99.90;;;;;;5056548;28;20052;-56
2022/06/10 05:47:18;;;;;;;14.43;3.78;;;14.20;99.90;;;;;;5057228;28;20044;-57
2022/06/10 05:49:47;;;;;;;18.17;4.10;;;14.20;99.90;;;;;;5052889;28;20044;-55
2022/06/10 05:52:14;;;;;;;19.50;4.75;;;14.20;99.90;;;;;;5054170;28;20054;-55
2022/06/10 05:54:43;;;;;;;14.73;3.65;;;14.30;99.90;;;;;;5054068;28;22468;-53
2022/06/10 05:57:09;;;;;;;19.15;4.28;;;14.40;99.90;;;;;;5058548;28;20511;-55
2022/06/10 05:59:35;;;;;;;14.48;3.75;;;14.40;99.90;;;;;;5061376;28;20036;-56
2022/06/10 06:02:03;;;;;;;17.55;3.95;;;14.40;99.90;;;;;;5059586;28;20489;-56
2022/06/10 06:04:29;;;;;;;14.32;3.95;;;14.50;99.90;;;;;;5056843;28;20049;-56
2022/06/10 06:06:56;;;;;;;17.42;4.82;;;14.60;99.90;;;;;;5056815;28;20396;-56
2022/06/10 06:09:22;;;;;;;16.83;4.28;;;14.60;99.90;;;;;;5058466;28;20090;-55
2022/06/10 06:11:50;;;;;;;14.90;3.67;;;14.60;99.90;;;;;;5052678;28;20056;-55
2022/06/10 06:14:18;;;;;;;14.85;3.60;;;14.70;99.90;;;;;;5053749;28;20044;-55
2022/06/10 06:16:51;;;;;;;14.90;3.67;;;14.80;99.90;;;;;;5056931;28;20065;-56
2022/06/10 06:19:17;;;;;;;;;;;14.90;99.90;;;;;;5032963;28;20510;-56
2022/06/10 06:21:43;;;;;;;18.38;4.90;;;14.90;99.90;;;;;;5061586;28;19924;-55
2022/06/10 06:24:09;;;;;;;16.83;4.25;;;15.00;99.90;;;;;;5065991;28;20098;-55
2022/06/10 06:26:34;;;;;;;13.00;3.92;;;15.10;99.90;;;;;;5063471;28;20114;-56
2022/06/10 06:29:00;;;;;;;21.08;4.55;;;15.20;99.90;;;;;;5065015;28;20067;-55
2022/06/10 06:31:26;;;;;;;13.85;4.60;;;15.30;99.90;;;;;;5064100;28;20044;-54
2022/06/10 06:33:52;;;;;;;21.38;5.20;;;15.40;99.90;;;;;;5063824;28;20069;-55
2022/06/10 06:36:24;;;;;;;13.32;4.70;;;15.40;99.90;;;;;;5065257;28;20090;-56
2022/06/10 06:38:50;;;;;;;15.65;5.20;;;15.40;99.90;;;;;;5062087;28;20079;-53
2022/06/10 06:41:17;;;;;;;16.20;4.53;;;15.40;99.90;;;;;;5060056;28;20084;-56
2022/06/10 06:43:44;;;;;;;16.33;4.78;;;15.50;99.90;;;;;;5060766;28;20506;-56
2022/06/10 06:46:16;;;;;;;14.38;5.18;;;15.50;99.90;;;;;;5058262;28;20251;-56
2022/06/10 06:48:43;;;;;;;17.90;4.85;;;15.40;99.90;;;;;;5055328;28;20052;-54
2022/06/10 06:51:09;;;;;;;21.55;5.82;;;15.40;99.90;;;;;;5060543;28;20846;-56
2022/06/10 06:53:35;;;;;;;18.40;5.38;;;15.40;99.90;;;;;;5057245;28;20045;-56
2022/06/10 06:56:03;;;;;;;23.95;6.05;;;15.50;99.90;;;;;;5063615;28;20059;-56
2022/06/10 06:58:29;;;;;;;19.30;6.15;;;15.60;99.90;;;;;;5062906;28;20048;-56
2022/06/10 07:00:56;;;;;;;24.98;6.25;;;15.60;99.90;;;;;;5056436;28;20068;-56
2022/06/10 07:03:22;;;;;;;16.63;5.15;;;15.70;99.90;;;;;;5053827;28;26649;-56
2022/06/10 07:05:49;;;;;;;22.08;5.40;;;15.80;99.90;;;;;;5055369;28;20071;-55
2022/06/10 07:08:16;;;;;;;16.25;5.30;;;15.80;99.90;;;;;;5054700;28;20056;-56
2022/06/10 07:10:41;;;;;;;14.65;5.13;;;15.90;99.90;;;;;;5064151;28;20452;-55
2022/06/10 07:13:07;;;;;;;17.27;5.57;;;15.90;99.90;;;;;;5055939;28;20139;-54
2022/06/10 07:15:33;;;;;;;16.13;5.60;;;16.00;99.90;;;;;;5058927;28;20056;-55
2022/06/10 07:18:00;;;;;;;22.40;5.57;;;16.00;99.90;;;;;;5056307;28;20052;-55
2022/06/10 07:20:30;;;;;;;20.98;5.40;;;16.10;99.90;;;;;;5058016;28;20039;-55
2022/06/10 07:22:57;;;;;;;13.15;5.07;;;16.10;99.90;;;;;;5047473;28;20068;-55
2022/06/10 07:25:23;;;;;;;15.05;5.03;;;16.20;99.90;;;;;;5058764;28;20040;-56
2022/06/10 07:27:52;;;;;;;16.73;5.90;;;16.20;99.90;;;;;;5059852;28;20513;-56
2022/06/10 07:30:20;;;;;;;22.92;5.70;;;16.20;99.90;;;;;;5053304;28;20418;-55
2022/06/10 07:32:46;;;;;;;16.85;5.45;;;16.20;99.90;;;;;;5035153;28;20995;-55
2022/06/10 07:35:13;;;;;;;15.32;5.50;;;16.20;99.90;;;;;;5054736;28;20048;-55
2022/06/10 07:37:40;;;;;;;12.65;5.45;;;16.30;99.90;;;;;;5052189;28;22016;-56
2022/06/10 07:40:07;;;;;;;12.20;5.22;;;16.30;99.90;;;;;;5054247;28;20044;-55
2022/06/10 07:42:36;;;;;;;16.60;6.13;;;16.40;99.90;;;;;;5056178;28;20051;-55
2022/06/10 07:45:03;;;;;;;15.68;5.78;;;16.50;99.90;;;;;;5055056;28;21926;-52
2022/06/10 07:47:29;;;;;;;16.55;5.53;;;16.50;99.90;;;;;;5054044;28;20049;-54
2022/06/10 07:49:54;;;;;;;12.43;6.25;;;16.60;99.90;;;;;;5054291;28;20044;-56
2022/06/10 07:52:20;;;;;;;14.82;6.20;;;16.60;99.90;;;;;;5056926;28;20060;-55
2022/06/10 07:54:46;;;;;;;13.48;6.38;;;16.70;99.90;;;;;;5064810;28;20044;-55
2022/06/10 07:57:12;;;;;;;10.57;5.25;;;16.70;99.90;;;;;;5059314;28;20048;-55
2022/06/10 07:59:40;;;;;;;12.48;5.85;;;16.80;99.90;;;;;;5054053;28;20063;-56
2022/06/10 08:02:06;;;;;;;12.38;5.70;;;16.90;99.90;;;;;;5053373;28;20048;-55
2022/06/10 08:04:32;;;;;;;16.00;5.90;;;16.90;99.90;;;;;;5058347;28;20118;-55
2022/06/10 08:06:58;;;;;;;11.27;5.47;;;16.90;99.90;;;;;;5053950;28;20076;-56
2022/06/10 08:09:24;;;;;;;16.13;5.97;;;16.90;99.90;;;;;;5055487;28;20083;-53
2022/06/10 08:11:52;;;;;;;13.25;5.03;;;16.90;99.90;;;;;;5050597;28;20248;-55
2022/06/10 08:14:18;;;;;;;14.40;5.32;;;16.90;99.90;;;;;;5053717;28;20056;-55
2022/06/10 08:16:44;;;;;;;14.25;6.30;;;16.90;99.90;;;;;;5049986;28;20048;-57
2022/06/10 08:19:10;;;;;;;11.88;5.07;;;16.80;99.90;;;;;;5050677;28;20060;-55
2022/06/10 08:24:21;;;;;;;12.30;5.18;;;16.90;99.90;;;;;;5049065;28;20462;-55
2022/06/10 08:26:48;;;;;;;9.05;4.85;;;17.10;99.90;;;;;;5052438;28;20111;-55
2022/06/10 08:29:14;;;;;;;14.35;5.10;;;17.10;99.90;;;;;;5049686;28;20139;-55
2022/06/10 08:31:40;;;;;;;13.52;5.63;;;17.20;99.90;;;;;;5048787;28;20045;-53
2022/06/10 08:34:06;;;;;;;9.73;5.13;;;17.20;99.90;;;;;;5051948;28;20139;-55
2022/06/10 08:36:33;;;;;;;8.07;4.85;;;17.20;99.90;;;;;;5051394;28;20535;-55
2022/06/10 08:39:00;;;;;;;16.17;5.60;;;17.20;99.90;;;;;;5052100;28;20040;-56
2022/06/10 08:41:55;;;;;;;13.55;5.88;;;17.20;99.90;;;;;;5052898;28;20441;-56
2022/06/10 08:44:41;;;;;;;14.98;5.88;;;17.20;99.90;;;;;;5051646;28;20053;-54
2022/06/10 08:47:38;;;;;;;15.43;6.78;;;17.30;99.90;;;;;;5052874;28;21862;-56
2022/06/10 08:50:25;;;;;;;19.23;6.68;;;17.30;99.90;;;;;;5050247;28;20102;-56
2022/06/10 08:53:25;;;;;;;16.30;6.07;;;17.40;99.90;;;;;;5050451;28;20394;-55
2022/06/10 08:56:22;;;;;;;14.70;6.07;;;17.40;99.90;;;;;;5049337;28;20044;-56
2022/06/10 08:59:18;;;;;;;15.32;5.63;;;17.40;99.90;;;;;;5048379;28;20052;-55
2022/06/10 09:01:53;;;;;;;14.80;5.93;;;17.40;99.90;;;;;;5051744;28;20058;-56
2022/06/10 09:04:33;;;;;;;14.98;5.75;;;17.40;99.90;;;;;;5047991;28;20059;-55
2022/06/10 09:07:09;;;;;;;12.35;5.63;;;17.50;99.90;;;;;;5050884;28;20046;-53
2022/06/10 09:09:35;;;;;;;12.70;6.07;;;17.50;99.90;;;;;;5054316;28;20044;-56
2022/06/10 09:12:11;;;;;;;14.98;5.82;;;17.50;99.90;;;;;;5054155;28;20048;-54
2022/06/10 09:14:38;;;;;;;18.05;7.35;;;17.60;99.90;;;;;;5049862;28;20045;-55
2022/06/10 09:17:26;;;;;;;20.77;7.80;;;17.60;99.90;;;;;;5049238;28;20534;-56
2022/06/10 09:20:18;;;;;;;17.15;7.20;;;17.80;99.90;;;;;;5052630;28;20105;-54
2022/06/10 09:23:15;;;;;;;17.15;7.25;;;17.90;99.90;;;;;;5053296;28;20059;-54
2022/06/10 09:25:44;;;;;;;20.63;7.18;;;18.00;99.90;;;;;;5056752;28;20112;-56
2022/06/10 09:28:10;;;;;;;16.23;7.00;;;17.90;99.90;;;;;;5054886;28;20040;-56
2022/06/10 09:30:46;;;;;;;19.42;7.07;;;18.00;99.90;;;;;;5055188;28;20095;-53
2022/06/10 09:33:22;;;;;;;13.52;6.32;;;18.10;99.90;;;;;;5051650;28;20916;-54
2022/06/10 09:36:08;;;;;;;20.00;6.93;;;18.00;99.90;;;;;;5051311;28;20048;-55
2022/06/10 09:38:39;;;;;;;18.77;6.10;;;17.90;99.90;;;;;;5050559;28;20482;-53
2022/06/10 09:41:29;;;;;;;16.98;6.55;;;17.90;99.90;;;;;;5050632;28;20079;-53
2022/06/10 09:44:22;;;;;;;16.20;5.82;;;17.80;99.90;;;;;;5040779;28;20060;-56
2022/06/10 09:47:08;;;;;;;14.02;6.18;;;17.90;99.90;;;;;;5052798;28;20056;-54
2022/06/10 09:49:53;;;;;;;20.27;5.88;;;17.80;99.90;;;;;;5054455;28;20087;-53
2022/06/10 09:52:32;;;;;;;10.32;5.45;;;17.80;99.90;;;;;;5056523;28;20052;-56
2022/06/10 09:55:22;;;;;;;18.45;6.00;;;17.90;99.90;;;;;;5055872;28;20494;-53
2022/06/10 09:58:06;;;;;;;11.32;5.40;;;17.90;99.90;;;;;;5060439;28;20182;-54
2022/06/10 10:00:48;;;;;;;16.42;5.80;;;18.00;99.90;;;;;;5057550;28;20044;-55
2022/06/10 10:03:26;;;;;;;14.85;5.10;;;18.10;99.90;;;;;;5056711;28;20109;-55
2022/06/10 10:06:00;;;;;;;17.02;5.60;;;18.20;99.90;;;;;;5054451;28;20040;-55
2022/06/10 10:08:44;;;;;;;13.55;5.57;;;18.30;99.90;;;;;;5055435;28;20067;-56
2022/06/10 10:11:26;;;;;;;13.68;5.55;;;18.30;99.90;;;;;;5056204;28;20398;-55
2022/06/10 10:14:10;;;;;;;16.35;6.60;;;18.40;99.90;;;;;;5052690;28;20136;-55
2022/06/10 10:16:36;;;;;;;15.48;6.00;;;18.30;99.90;;;;;;5055079;28;20054;-56
2022/06/10 10:19:11;;;;;;;16.90;6.50;;;18.40;99.90;;;;;;5053638;28;20498;-55
2022/06/10 10:21:43;;;;;;;17.08;6.32;;;18.40;99.90;;;;;;5054647;28;20048;-56
2022/06/10 10:24:27;;;;;;;17.02;6.45;;;18.40;99.90;;;;;;5055201;28;20068;-56
2022/06/10 10:26:55;;;;;;;15.02;6.63;;;18.40;99.90;;;;;;5053004;28;20040;-55
2022/06/10 10:29:24;;;;;;;19.20;6.40;;;18.40;99.90;;;;;;5057467;28;20041;-54
2022/06/10 10:32:07;;;;;;;14.93;6.68;;;18.40;99.90;;;;;;5061715;28;20509;-56
2022/06/10 10:34:36;;;;;;;;;;;18.50;99.90;;;;;;5059087;28;20057;-54
2022/06/10 10:37:17;;;;;;;18.40;6.95;;;18.60;99.90;;;;;;5052913;28;19971;-55
2022/06/10 10:39:52;;;;;;;14.45;6.55;;;18.80;99.90;;;;;;5061821;28;20049;-56
2022/06/10 10:42:23;;;;;;;18.02;6.80;;;18.90;99.90;;;;;;5058731;28;20054;-54
2022/06/10 10:44:58;;;;;;;21.58;6.63;;;19.00;99.90;;;;;;5058418;28;20413;-54
2022/06/10 10:47:26;;;;;;;16.20;6.85;;;19.10;99.90;;;;;;5055242;28;20036;-56
2022/06/10 10:49:58;;;;;;;17.35;6.95;;;19.10;99.90;;;;;;5060996;28;20056;-53
2022/06/10 10:52:39;;;;;;;12.70;6.70;;;19.10;99.90;;;;;;5060778;28;20052;-55
2022/06/10 10:55:14;;;;;;;17.30;6.13;;;19.10;99.90;;;;;;5052649;28;20087;-55
2022/06/10 10:57:53;;;;;;;17.35;6.53;;;19.00;99.90;;;;;;5059411;28;20073;-55
2022/06/10 11:00:53;;;;;;;18.58;6.60;;;19.00;99.90;;;;;;5062664;28;20052;-56
2022/06/10 11:03:24;;;;;;;16.27;6.65;;;19.00;99.90;;;;;;5062779;28;20053;-55
2022/06/10 11:05:52;;;;;;;18.73;6.05;;;18.90;99.90;;;;;;5062982;28;20075;-55
2022/06/10 11:08:31;;;;;;;17.10;6.65;;;18.90;99.90;;;;;;5063126;28;20052;-56
2022/06/10 11:11:05;;;;;;;16.08;6.32;;;18.90;99.90;;;;;;5060141;28;20403;-56
2022/06/10 11:13:44;;;;;;;12.77;5.70;;;18.90;99.90;;;;;;5060611;28;20033;-55
2022/06/10 11:16:29;;;;;;;14.18;6.03;;;19.00;99.90;;;;;;5060684;28;20560;-56
2022/06/10 11:19:44;;;;;;;14.60;6.47;;;19.20;99.90;;;;;;5063471;28;20148;-55
2022/06/10 11:22:21;;;;;;;16.17;6.00;;;19.30;99.90;;;;;;5035587;28;20049;-56
2022/06/10 11:24:55;;;;;;;13.82;5.85;;;19.40;99.90;;;;;;5056254;28;20053;-56
2022/06/10 11:27:32;;;;;;;14.88;5.57;;;19.30;99.90;;;;;;5060005;28;20047;-56
2022/06/10 11:30:10;;;;;;;14.07;6.05;;;19.30;99.90;;;;;;5060343;28;20117;-55
2022/06/10 11:32:48;;;;;;;12.35;6.00;;;19.30;99.90;;;;;;5061804;28;20072;-56
2022/06/10 11:35:26;;;;;;;15.38;5.63;;;19.40;99.90;;;;;;5061099;28;20048;-56
2022/06/10 11:38:01;;;;;;;20.58;6.63;;;19.60;99.90;;;;;;5061197;28;20048;-56
2022/06/10 11:40:46;;;;;;;14.75;5.65;;;19.80;99.90;;;;;;5042410;28;20123;-56
2022/06/10 11:43:18;;;;;;;10.40;5.20;;;20.00;99.90;;;;;;5059635;28;20505;-55
2022/06/10 11:45:48;;;;;;;13.50;5.25;;;20.10;99.90;;;;;;5049247;28;20056;-56
2022/06/10 11:48:44;;;;;;;11.75;4.95;;;20.10;99.90;;;;;;5053485;28;20974;-56
2022/06/10 11:51:35;;;;;;;9.15;4.85;;;20.10;99.90;;;;;;5058206;28;20052;-56
2022/06/10 11:54:29;;;;;;;13.70;5.00;;;20.00;99.90;;;;;;5058371;28;20044;-56
2022/06/10 12:00:35;;;;;;;13.57;4.65;;;20.00;99.90;;;;;;5053174;28;20052;-54
2022/06/10 12:03:11;;;;;;;12.48;4.95;;;20.00;99.90;;;;;;5055096;28;20538;-55
2022/06/10 12:05:46;;;;;;;13.63;5.05;;;20.00;99.90;;;;;;5054874;28;20147;-55
2022/06/10 12:08:26;;;;;;;11.95;4.50;;;20.00;99.90;;;;;;5054834;28;20129;-55
2022/06/10 12:11:01;;;;;;;9.23;4.57;;;20.10;99.90;;;;;;5051589;28;20067;-55
2022/06/10 12:13:34;;;;;;;9.90;4.97;;;20.30;99.90;;;;;;5048846;28;20094;-55
2022/06/10 12:16:03;;;;;;;10.60;4.82;;;20.40;99.90;;;;;;5058074;28;20110;-54
2022/06/10 12:18:35;;;;;;;9.20;4.78;;;20.40;99.90;;;;;;5034975;28;20044;-56
2022/06/10 12:21:04;;;;;;;14.20;4.97;;;20.40;99.90;;;;;;5057973;28;20045;-55
2022/06/10 12:23:36;;;;;;;10.23;4.90;;;20.40;99.90;;;;;;5059896;28;20052;-56
2022/06/10 12:26:13;;;;;;;12.73;5.22;;;20.30;99.90;;;;;;5058317;28;20083;-56
2022/06/10 12:29:02;;;;;;;9.18;4.90;;;20.40;99.90;;;;;;5059724;28;20040;-56
2022/06/10 12:31:53;;;;;;;18.60;6.18;;;20.30;99.90;;;;;;5057897;28;20048;-56
2022/06/10 12:34:41;;;;;;;14.77;5.68;;;20.30;99.90;;;;;;5055014;28;20048;-56
2022/06/10 12:37:32;;;;;;;16.80;5.93;;;20.20;99.90;;;;;;5057684;28;20056;-54
2022/06/10 12:40:02;;;;;;;11.60;5.43;;;20.20;99.90;;;;;;5061880;28;20053;-57
2022/06/10 12:42:43;;;;;;;12.77;5.30;;;20.20;99.90;;;;;;5057608;28;20663;-56
2022/06/10 12:45:24;;;;;;;15.38;5.80;;;20.20;99.90;;;;;;5056766;28;20136;-57
2022/06/10 12:48:01;;;;;;;15.70;5.88;;;20.20;99.90;;;;;;5057249;28;20072;-57
2022/06/10 12:50:30;;;;;;;14.15;5.95;;;20.30;99.90;;;;;;5060191;28;20350;-57
2022/06/10 12:53:02;;;;;;;13.93;5.63;;;20.40;99.90;;;;;;5062188;28;20052;-57
2022/06/10 12:55:46;;;;;;;13.82;6.00;;;20.50;99.90;;;;;;5060790;28;20044;-56
2022/06/10 12:58:39;;;;;;;14.27;5.45;;;20.60;99.90;;;;;;5062133;28;20060;-57
2022/06/10 13:01:42;;;;;;;16.88;5.75;;;20.60;99.90;;;;;;5055223;28;20103;-55
2022/06/10 13:04:13;;;;;;;13.95;5.53;;;20.60;99.90;;;;;;5050783;28;20182;-57
2022/06/10 13:06:45;;;;;;;12.80;5.85;;;20.50;99.90;;;;;;5050498;28;20040;-57
2022/06/10 13:09:10;;;;;;;11.27;5.37;;;20.50;99.90;;;;;;5050918;28;20089;-56
2022/06/10 13:11:54;;;;;;;12.65;5.00;;;20.50;99.90;;;;;;5052706;28;20783;-57
2022/06/10 13:14:22;;;;;;;11.40;4.47;;;20.60;99.90;;;;;;5048356;28;20044;-56
2022/06/10 13:17:17;;;;;;;12.55;5.07;;;20.60;99.90;;;;;;5055891;28;20048;-57
2022/06/10 13:19:55;;;;;;;11.93;4.95;;;20.70;99.90;;;;;;5054080;28;20160;-57
2022/06/10 13:22:21;;;;;;;15.18;4.95;;;20.70;99.90;;;;;;5054238;28;21208;-57
2022/06/10 13:24:53;;;;;;;9.52;4.45;;;20.80;99.90;;;;;;5057285;28;20051;-57